Time;durP1;ratioP1;P1;durP2;ratioP2;P2;SDS_P1;SDS_P2;PMS_P1;PMS_P2;Temp;Humidity;BMP_temperature;BMP_pressure;BME280_temperature;BME280_humidity;BME280_pressure;Samples;Min_cycle;Max_cycle;Signal;HPM_P1;HPM_P2
2022/04/14 00:00:56;;;;;;;18.42;10.82;;;;;;;;;;4998411;28;20026;-68
2022/04/14 00:03:22;;;;;;;14.70;9.95;;;;;;;;;;5004858;28;20085;-68
2022/04/14 00:05:47;;;;;;;19.33;10.73;;;;;;;;;;4993398;28;20096;-68
2022/04/14 00:08:12;;;;;;;17.10;10.32;;;;;;;;;;4996349;28;20042;-67
2022/04/14 00:10:38;;;;;;;18.58;9.95;;;;;;;;;;5002160;28;20030;-68
2022/04/14 00:13:03;;;;;;;15.27;9.52;;;;;;;;;;4998916;28;20034;-67
2022/04/14 00:15:29;;;;;;;16.77;9.98;;;;;;;;;;4999857;28;20112;-68
2022/04/14 00:17:55;;;;;;;20.30;11.10;;;;;;;;;;5005806;28;20039;-68
2022/04/14 00:20:20;;;;;;;15.77;10.23;;;;;;;;;;4996404;28;20034;-67
2022/04/14 00:22:45;;;;;;;18.58;10.73;;;;;;;;;;5003151;28;20038;-68
2022/04/14 00:25:11;;;;;;;20.83;10.48;;;;;;;;;;5007016;28;20546;-68
2022/04/14 00:27:37;;;;;;;16.30;9.70;;;;;;;;;;5007301;28;20566;-67
2022/04/14 00:30:04;;;;;;;22.13;11.68;;;;;;;;;;4997728;28;20043;-68
2022/04/14 00:32:31;;;;;;;19.65;11.00;;;;;;;;;;5005585;28;20057;-67
2022/04/14 00:34:57;;;;;;;20.75;10.65;;;;;;;;;;5000626;28;20507;-68
2022/04/14 00:37:22;;;;;;;18.00;10.65;;;;;;;;;;4996830;28;20033;-67
2022/04/14 00:39:49;;;;;;;21.75;10.98;;;;;;;;;;4995225;28;20014;-68
2022/04/14 00:42:14;;;;;;;20.80;10.52;;;;;;;;;;5009919;28;20034;-67
2022/04/14 00:44:40;;;;;;;19.25;10.98;;;;;;;;;;5006469;28;20593;-67
2022/04/14 00:47:06;;;;;;;17.25;10.57;;;;;;;;;;4998869;28;20034;-67
2022/04/14 00:49:33;;;;;;;22.15;13.48;;;;;;;;;;4993759;28;20038;-67
2022/04/14 00:52:00;;;;;;;23.35;13.20;;;;;;;;;;5007301;28;20105;-67
2022/04/14 00:54:26;;;;;;;21.30;11.82;;;;;;;;;;4999301;28;20019;-67
2022/04/14 00:56:51;;;;;;;18.42;10.65;;;;;;;;;;5004441;28;20029;-68
2022/04/14 00:59:17;;;;;;;18.05;9.93;;;;;;;;;;5000216;28;20100;-67
2022/04/14 01:01:42;;;;;;;12.70;7.70;;;;;;;;;;4995135;28;20034;-68
2022/04/14 01:04:10;;;;;;;13.05;7.68;;;;;;;;;;5004906;28;20076;-68
2022/04/14 01:06:38;;;;;;;14.35;7.93;;;;;;;;;;5010456;28;20034;-67
2022/04/14 01:09:16;;;;;;;10.48;7.03;;;;;;;;;;4998990;28;20038;-68
2022/04/14 01:11:48;;;;;;;12.60;7.80;;;;;;;;;;4999266;28;20123;-67
2022/04/14 01:14:33;;;;;;;12.50;7.88;;;;;;;;;;5001349;28;20073;-67
2022/04/14 01:17:02;;;;;;;18.58;8.73;;;;;;;;;;5001169;28;20061;-68
2022/04/14 01:19:28;;;;;;;16.60;8.85;;;;;;;;;;4997964;28;20126;-67
2022/04/14 01:22:01;;;;;;;18.23;9.50;;;;;;;;;;5004443;28;20033;-67
2022/04/14 01:24:26;;;;;;;;;;;;;;;;;;4999883;28;20031;-67
2022/04/14 01:26:55;;;;;;;14.00;8.10;;;;;;;;;;4994857;28;20056;-67
2022/04/14 01:29:22;;;;;;;15.13;9.00;;;;;;;;;;4998598;28;20050;-67
2022/04/14 01:31:47;;;;;;;15.15;9.05;;;;;;;;;;5002028;28;20050;-67
2022/04/14 01:34:13;;;;;;;17.67;10.55;;;;;;;;;;4999760;28;20116;-67
2022/04/14 01:36:38;;;;;;;16.75;9.43;;;;;;;;;;4999995;28;20022;-67
2022/04/14 01:39:03;;;;;;;17.38;9.82;;;;;;;;;;4997308;28;20389;-67
2022/04/14 01:41:29;;;;;;;19.73;11.00;;;;;;;;;;5009741;28;20802;-67
2022/04/14 01:43:54;;;;;;;23.70;12.38;;;;;;;;;;5008364;28;20103;-67
2022/04/14 01:46:19;;;;;;;20.55;10.68;;;;;;;;;;5009790;28;20042;-68
2022/04/14 01:48:45;;;;;;;25.33;11.82;;;;;;;;;;5002027;28;20080;-67
2022/04/14 01:51:10;;;;;;;21.70;12.00;;;;;;;;;;4991638;28;20139;-68
2022/04/14 01:53:35;;;;;;;20.33;11.30;;;;;;;;;;4995161;28;20046;-68
2022/04/14 01:56:01;;;;;;;22.05;11.43;;;;;;;;;;4990735;28;20081;-67
2022/04/14 01:58:26;;;;;;;24.15;12.23;;;;;;;;;;4992574;28;20077;-67
2022/04/14 02:00:51;;;;;;;21.75;11.98;;;;;;;;;;4991111;28;20069;-67
2022/04/14 02:03:17;;;;;;;19.83;11.80;;;;;;;;;;4995018;28;20054;-67
2022/04/14 02:05:42;;;;;;;19.02;11.05;;;;;;;;;;4990257;28;20096;-67
2022/04/14 02:08:07;;;;;;;22.15;13.23;;;;;;;;;;5001810;28;20144;-67
2022/04/14 02:10:33;;;;;;;21.15;11.98;;;;;;;;;;5008695;28;20041;-67
2022/04/14 02:12:59;;;;;;;23.35;12.95;;;;;;;;;;5009574;28;20041;-68
2022/04/14 02:15:24;;;;;;;28.27;12.85;;;;;;;;;;5009976;28;20046;-67
2022/04/14 02:17:49;;;;;;;24.60;12.82;;;;;;;;;;5005983;28;20161;-67
2022/04/14 02:20:15;;;;;;;21.08;12.13;;;;;;;;;;4997970;28;20050;-67
2022/04/14 02:22:41;;;;;;;19.88;11.15;;;;;;;;;;5002751;28;20038;-67
2022/04/14 02:25:07;;;;;;;18.52;10.63;;;;;;;;;;4999644;28;20054;-67
2022/04/14 02:27:32;;;;;;;17.42;10.73;;;;;;;;;;5001242;28;20030;-67
2022/04/14 02:29:58;;;;;;;23.02;12.38;;;;;;;;;;5002457;28;20459;-67
2022/04/14 02:32:23;;;;;;;19.30;10.70;;;;;;;;;;5004894;28;20048;-67
2022/04/14 02:34:48;;;;;;;25.15;11.20;;;;;;;;;;4998735;28;20065;-67
2022/04/14 02:37:13;;;;;;;24.75;11.30;;;;;;;;;;4994048;28;20049;-67
2022/04/14 02:39:39;;;;;;;25.38;11.90;;;;;;;;;;4998600;28;20025;-67
2022/04/14 02:42:05;;;;;;;22.48;11.70;;;;;;;;;;4997406;28;20096;-67
2022/04/14 02:44:30;;;;;;;19.08;11.02;;;;;;;;;;5008281;28;20057;-67
2022/04/14 02:46:55;;;;;;;17.70;10.35;;;;;;;;;;5005306;28;20062;-67
2022/04/14 02:49:21;;;;;;;19.88;10.98;;;;;;;;;;4994904;28;20499;-67
2022/04/14 02:51:47;;;;;;;20.60;10.80;;;;;;;;;;4998789;28;20088;-68
2022/04/14 02:54:12;;;;;;;18.00;10.40;;;;;;;;;;4994591;28;20054;-67
2022/04/14 02:56:37;;;;;;;20.48;11.30;;;;;;;;;;4990701;28;20535;-67
2022/04/14 02:59:03;;;;;;;17.83;10.63;;;;;;;;;;4990339;28;20069;-68
2022/04/14 03:01:28;;;;;;;25.30;11.18;;;;;;;;;;5001588;28;20625;-68
2022/04/14 03:03:53;;;;;;;27.95;12.80;;;;;;;;;;5000202;28;20081;-67
2022/04/14 03:06:19;;;;;;;23.40;10.93;;;;;;;;;;4999279;28;20064;-67
2022/04/14 03:08:44;;;;;;;17.92;9.88;;;;;;;;;;4998420;28;20551;-68
2022/04/14 03:11:10;;;;;;;21.08;11.35;;;;;;;;;;4993920;28;20052;-67
2022/04/14 03:13:35;;;;;;;23.08;11.55;;;;;;;;;;4996614;28;20042;-67
2022/04/14 03:16:00;;;;;;;24.10;10.65;;;;;;;;;;4998413;28;20037;-67
2022/04/14 03:18:26;;;;;;;22.35;11.38;;;;;;;;;;5008281;28;20036;-67
2022/04/14 03:20:51;;;;;;;19.67;10.85;;;;;;;;;;4999179;28;20037;-67
2022/04/14 03:23:16;;;;;;;26.42;10.82;;;;;;;;;;5001604;28;20046;-67
2022/04/14 03:25:42;;;;;;;18.67;10.65;;;;;;;;;;4992257;28;20116;-67
2022/04/14 03:28:08;;;;;;;19.83;10.52;;;;;;;;;;4993726;28;20118;-67
2022/04/14 03:30:33;;;;;;;252.68;16.90;;;;;;;;;;5003885;28;20042;-68
2022/04/14 03:32:58;;;;;;;100.38;15.77;;;;;;;;;;5007026;28;20037;-68
2022/04/14 03:35:23;;;;;;;97.07;14.65;;;;;;;;;;5002323;28;20659;-67
2022/04/14 03:37:49;;;;;;;54.25;12.48;;;;;;;;;;4998379;28;20049;-67
2022/04/14 03:40:14;;;;;;;73.25;15.82;;;;;;;;;;4999510;28;20050;-68
2022/04/14 03:42:39;;;;;;;72.13;13.75;;;;;;;;;;5003111;28;20037;-67
2022/04/14 03:45:06;;;;;;;67.45;12.13;;;;;;;;;;4996306;28;20033;-67
2022/04/14 03:47:32;;;;;;;149.23;16.45;;;;;;;;;;5005659;28;20042;-67
2022/04/14 03:49:57;;;;;;;54.20;12.57;;;;;;;;;;4991111;28;20670;-67
2022/04/14 03:52:23;;;;;;;71.32;12.32;;;;;;;;;;5003838;28;20512;-67
2022/04/14 03:54:48;;;;;;;45.50;12.27;;;;;;;;;;5008405;28;20160;-67
2022/04/14 03:57:13;;;;;;;52.97;12.43;;;;;;;;;;5000535;28;20096;-67
2022/04/14 03:59:39;;;;;;;40.75;11.98;;;;;;;;;;4997417;28;20838;-66
2022/04/14 04:02:04;;;;;;;36.13;12.20;;;;;;;;;;5000704;28;20049;-67
2022/04/14 04:04:31;;;;;;;79.95;13.40;;;;;;;;;;4997274;28;20080;-67
2022/04/14 04:06:57;;;;;;;64.50;12.88;;;;;;;;;;4999170;28;20026;-67
2022/04/14 04:09:23;;;;;;;87.10;14.50;;;;;;;;;;4991732;28;20088;-67
2022/04/14 04:11:48;;;;;;;127.88;15.88;;;;;;;;;;4996238;28;20031;-67
2022/04/14 04:14:14;;;;;;;57.30;13.20;;;;;;;;;;4999365;28;20053;-67
2022/04/14 04:16:39;;;;;;;152.82;14.98;;;;;;;;;;5005244;28;20129;-67
2022/04/14 04:19:04;;;;;;;81.10;15.23;;;;;;;;;;5008848;28;20034;-67
2022/04/14 04:21:31;;;;;;;80.18;14.88;;;;;;;;;;5002700;28;20022;-67
2022/04/14 04:23:56;;;;;;;98.88;14.52;;;;;;;;;;4999881;28;20060;-67
2022/04/14 04:26:22;;;;;;;106.32;14.50;;;;;;;;;;5000384;28;20572;-67
2022/04/14 04:28:47;;;;;;;88.28;14.95;;;;;;;;;;5004685;28;20476;-67
2022/04/14 04:31:13;;;;;;;162.43;16.20;;;;;;;;;;4998821;28;20996;-68
2022/04/14 04:33:38;;;;;;;127.03;14.68;;;;;;;;;;5004581;28;20057;-67
2022/04/14 04:36:04;;;;;;;73.97;15.20;;;;;;;;;;5006948;28;20498;-67
2022/04/14 04:38:29;;;;;;;96.00;15.18;;;;;;;;;;5008063;28;20034;-67
2022/04/14 04:40:56;;;;;;;107.05;14.73;;;;;;;;;;5011290;28;20037;-67
2022/04/14 04:43:21;;;;;;;121.38;15.73;;;;;;;;;;5010882;28;20037;-68
2022/04/14 04:45:47;;;;;;;88.47;16.45;;;;;;;;;;5012548;28;23144;-67
2022/04/14 04:48:12;;;;;;;141.80;16.23;;;;;;;;;;4996031;28;20058;-67
2022/04/14 04:50:37;;;;;;;182.63;17.63;;;;;;;;;;4994576;28;20633;-67
2022/04/14 04:53:04;;;;;;;140.82;15.63;;;;;;;;;;4999946;28;20062;-67
2022/04/14 04:55:30;;;;;;;136.50;16.20;;;;;;;;;;4991439;28;20129;-67
2022/04/14 04:57:55;;;;;;;114.40;15.57;;;;;;;;;;5003615;28;20121;-67
2022/04/14 05:00:21;;;;;;;149.10;16.25;;;;;;;;;;4997650;28;20027;-68
2022/04/14 05:02:46;;;;;;;97.53;15.55;;;;;;;;;;4997314;28;20042;-67
2022/04/14 05:05:11;;;;;;;131.35;15.65;;;;;;;;;;4991101;28;20030;-67
2022/04/14 05:07:37;;;;;;;131.07;16.10;;;;;;;;;;4997401;28;20049;-67
2022/04/14 05:10:02;;;;;;;181.55;18.45;;;;;;;;;;4993442;28;20021;-67
2022/04/14 05:12:28;;;;;;;101.18;15.48;;;;;;;;;;4993249;28;20087;-67
2022/04/14 05:14:53;;;;;;;225.32;20.58;;;;;;;;;;5001421;28;20169;-67
2022/04/14 05:17:18;;;;;;;123.70;16.83;;;;;;;;;;4994305;28;20695;-67
2022/04/14 05:19:44;;;;;;;152.70;19.25;;;;;;;;;;4999167;28;20049;-68
2022/04/14 05:22:09;;;;;;;162.27;18.08;;;;;;;;;;5000753;28;20061;-68
2022/04/14 05:24:35;;;;;;;150.32;20.83;;;;;;;;;;4995887;28;20105;-67
2022/04/14 05:27:00;;;;;;;111.70;16.70;;;;;;;;;;5005013;28;20052;-67
2022/04/14 05:29:25;;;;;;;90.13;16.73;;;;;;;;;;5008215;28;20034;-67
2022/04/14 05:31:51;;;;;;;91.38;16.55;;;;;;;;;;5008557;28;20423;-67
2022/04/14 05:34:16;;;;;;;124.95;17.08;;;;;;;;;;5008121;28;20034;-67
2022/04/14 05:36:41;;;;;;;55.00;14.43;;;;;;;;;;4993092;28;21048;-67
2022/04/14 05:39:07;;;;;;;37.70;14.05;;;;;;;;;;5009550;28;20092;-67
2022/04/14 05:41:32;;;;;;;60.58;15.68;;;;;;;;;;5006058;28;20112;-66
2022/04/14 05:43:58;;;;;;;34.90;14.70;;;;;;;;;;5003821;28;20112;-66
2022/04/14 05:46:24;;;;;;;51.83;15.45;;;;;;;;;;5003678;28;20539;-66
2022/04/14 05:48:49;;;;;;;23.58;14.07;;;;;;;;;;5004805;28;20036;-65
2022/04/14 05:51:15;;;;;;;23.88;13.85;;;;;;;;;;5000849;28;20542;-65
2022/04/14 05:53:40;;;;;;;25.35;14.85;;;;;;;;;;5005614;28;20034;-67
2022/04/14 05:56:06;;;;;;;24.92;14.55;;;;;;;;;;5001113;28;20089;-69
2022/04/14 05:58:31;;;;;;;23.00;13.68;;;;;;;;;;4996654;28;20092;-68
2022/04/14 06:00:57;;;;;;;23.45;13.98;;;;;;;;;;5009626;28;20045;-68
2022/04/14 06:03:22;;;;;;;25.10;14.57;;;;;;;;;;4997004;28;20096;-66
2022/04/14 06:05:47;;;;;;;25.40;14.43;;;;;;;;;;5008044;28;20596;-67
2022/04/14 06:08:14;;;;;;;23.73;14.15;;;;;;;;;;5004121;28;20800;-66
2022/04/14 06:10:39;;;;;;;26.38;15.23;;;;;;;;;;5007222;28;20065;-67
2022/04/14 06:13:05;;;;;;;28.27;15.55;;;;;;;;;;5007434;28;20057;-67
2022/04/14 06:15:31;;;;;;;30.25;15.73;;;;;;;;;;5017922;28;20087;-67
2022/04/14 06:17:56;;;;;;;29.10;15.68;;;;;;;;;;5006713;28;20084;-67
2022/04/14 06:20:22;;;;;;;24.50;15.02;;;;;;;;;;5004342;28;20033;-67
2022/04/14 06:22:47;;;;;;;26.58;14.35;;;;;;;;;;5010297;28;20029;-67
2022/04/14 06:25:14;;;;;;;26.75;15.32;;;;;;;;;;5005442;28;20664;-67
2022/04/14 06:27:40;;;;;;;26.50;14.95;;;;;;;;;;5010934;28;20561;-67
2022/04/14 06:30:07;;;;;;;27.00;15.05;;;;;;;;;;5006304;28;20165;-67
2022/04/14 06:32:32;;;;;;;25.63;15.35;;;;;;;;;;5009984;28;20064;-67
2022/04/14 06:34:58;;;;;;;27.63;15.35;;;;;;;;;;5004706;28;20511;-67
2022/04/14 06:37:23;;;;;;;27.73;15.05;;;;;;;;;;5001664;28;20550;-67
2022/04/14 06:39:48;;;;;;;28.00;15.25;;;;;;;;;;5006767;28;20530;-67
2022/04/14 06:42:14;;;;;;;26.88;15.52;;;;;;;;;;5000426;28;20034;-69
2022/04/14 06:44:39;;;;;;;26.27;15.43;;;;;;;;;;5007027;28;20057;-69
2022/04/14 06:47:05;;;;;;;28.40;16.27;;;;;;;;;;5007745;28;20048;-69
2022/04/14 06:49:30;;;;;;;29.70;16.75;;;;;;;;;;5007418;28;20037;-68
2022/04/14 06:51:55;;;;;;;30.40;16.67;;;;;;;;;;5005226;28;20018;-68
2022/04/14 06:54:21;;;;;;;29.67;16.92;;;;;;;;;;5004076;28;20022;-68
2022/04/14 06:56:46;;;;;;;34.25;17.35;;;;;;;;;;5001113;28;20045;-68
2022/04/14 06:59:11;;;;;;;34.10;18.67;;;;;;;;;;5004847;28;20038;-68
2022/04/14 07:01:36;;;;;;;32.90;18.77;;;;;;;;;;4999475;28;20038;-68
2022/04/14 07:04:02;;;;;;;36.63;19.75;;;;;;;;;;4994669;28;20147;-68
2022/04/14 07:06:27;;;;;;;35.03;19.35;;;;;;;;;;4984435;28;20033;-68
2022/04/14 07:08:52;;;;;;;38.67;19.30;;;;;;;;;;4999549;28;20045;-69
2022/04/14 07:11:18;;;;;;;38.70;20.80;;;;;;;;;;5006341;28;20033;-69
2022/04/14 07:13:43;;;;;;;37.67;19.92;;;;;;;;;;5002499;28;20140;-71
2022/04/14 07:16:08;;;;;;;40.28;21.38;;;;;;;;;;5003124;28;20038;-74
2022/04/14 07:18:34;;;;;;;46.20;22.90;;;;;;;;;;4996589;28;20045;-75
2022/04/14 07:20:59;;;;;;;41.67;22.27;;;;;;;;;;4997869;28;20073;-74
2022/04/14 07:23:24;;;;;;;44.97;22.50;;;;;;;;;;4996958;28;20045;-73
2022/04/14 07:25:50;;;;;;;47.97;22.42;;;;;;;;;;4994693;28;20028;-75
2022/04/14 07:28:15;;;;;;;50.65;24.85;;;;;;;;;;4996504;28;20153;-72
2022/04/14 07:30:42;;;;;;;50.30;24.58;;;;;;;;;;4993631;28;20049;-72
2022/04/14 07:33:07;;;;;;;43.63;22.55;;;;;;;;;;4993566;28;20052;-72
2022/04/14 07:35:33;;;;;;;48.20;23.00;;;;;;;;;;4992086;28;20026;-71
2022/04/14 07:37:59;;;;;;;44.03;21.58;;;;;;;;;;4989540;28;20069;-74
2022/04/14 07:40:25;;;;;;;45.65;23.25;;;;;;;;;;4989272;28;20064;-72
2022/04/14 07:42:51;;;;;;;44.45;22.67;;;;;;;;;;5000027;28;20416;-72
2022/04/14 07:45:18;;;;;;;46.63;23.50;;;;;;;;;;4991840;28;20038;-72
2022/04/14 07:47:45;;;;;;;46.22;23.05;;;;;;;;;;4994065;28;20046;-72
2022/04/14 07:50:12;;;;;;;42.13;22.02;;;;;;;;;;4995472;28;20108;-70
2022/04/14 07:52:52;;;;;;;43.67;22.65;;;;;;;;;;5000598;28;20034;-70
2022/04/14 07:55:29;;;;;;;44.47;23.23;;;;;;;;;;4995096;28;20046;-71
2022/04/14 07:57:57;;;;;;;46.60;23.33;;;;;;;;;;5000327;28;20528;-70
2022/04/14 08:00:24;;;;;;;51.63;24.92;;;;;;;;;;4997458;28;20536;-71
2022/04/14 08:02:55;;;;;;;54.40;25.40;;;;;;;;;;5002070;28;20045;-70
2022/04/14 08:05:33;;;;;;;47.83;22.60;;;;;;;;;;4998734;28;20119;-70
2022/04/14 08:07:59;;;;;;;42.47;21.17;;;;;;;;;;4997351;28;20638;-69
2022/04/14 08:10:25;;;;;;;44.90;22.38;;;;;;;;;;4996024;28;20048;-70
2022/04/14 08:12:50;;;;;;;45.38;23.33;;;;;;;;;;4997460;28;20046;-70
2022/04/14 08:15:15;;;;;;;45.25;22.58;;;;;;;;;;4998096;28;20535;-70
2022/04/14 08:17:42;;;;;;;43.80;21.38;;;;;;;;;;5001396;28;20139;-70
2022/04/14 08:20:09;;;;;;;43.42;21.52;;;;;;;;;;5002104;28;20038;-70
2022/04/14 08:22:45;;;;;;;40.20;21.60;;;;;;;;;;4996417;28;20539;-71
2022/04/14 08:25:12;;;;;;;41.78;22.85;;;;;;;;;;4996772;28;20053;-70
2022/04/14 08:27:37;;;;;;;38.67;19.77;;;;;;;;;;4996034;28;20034;-71
2022/04/14 08:30:03;;;;;;;45.55;20.92;;;;;;;;;;4994520;28;20038;-72
2022/04/14 08:32:28;;;;;;;38.65;18.75;;;;;;;;;;4997666;28;20030;-72
2022/04/14 08:34:54;;;;;;;37.35;17.90;;;;;;;;;;4997274;28;20412;-70
2022/04/14 08:37:19;;;;;;;46.80;24.70;;;;;;;;;;4996574;28;21094;-70
2022/04/14 08:39:45;;;;;;;37.17;17.75;;;;;;;;;;5002463;28;20046;-70
2022/04/14 08:42:15;;;;;;;30.20;15.32;;;;;;;;;;4996683;28;20078;-71
2022/04/14 08:44:46;;;;;;;31.55;16.23;;;;;;;;;;5003890;28;20042;-71
2022/04/14 08:47:14;;;;;;;29.55;15.45;;;;;;;;;;5004562;28;20034;-73
2022/04/14 08:49:43;;;;;;;28.50;14.43;;;;;;;;;;4999858;28;20121;-73
2022/04/14 08:52:14;;;;;;;27.30;14.40;;;;;;;;;;5003850;28;20052;-72
2022/04/14 08:54:40;;;;;;;26.08;14.25;;;;;;;;;;4998006;28;20121;-71
2022/04/14 08:57:09;;;;;;;27.88;14.82;;;;;;;;;;5000187;28;20034;-71
2022/04/14 08:59:35;;;;;;;35.22;16.77;;;;;;;;;;5001990;28;20032;-75
2022/04/14 09:02:04;;;;;;;29.05;16.52;;;;;;;;;;5002605;28;20117;-73
2022/04/14 09:04:29;;;;;;;28.45;16.08;;;;;;;;;;4998929;28;20038;-74
2022/04/14 09:06:55;;;;;;;29.15;15.98;;;;;;;;;;5002240;28;20041;-72
2022/04/14 09:09:20;;;;;;;24.42;13.23;;;;;;;;;;4996927;28;20045;-71
2022/04/14 09:11:46;;;;;;;26.58;12.43;;;;;;;;;;5002645;28;20507;-72
2022/04/14 09:14:11;;;;;;;24.48;13.15;;;;;;;;;;5004044;28;20113;-71
2022/04/14 09:16:36;;;;;;;27.27;12.63;;;;;;;;;;5004468;28;20061;-71
2022/04/14 09:19:03;;;;;;;19.95;11.25;;;;;;;;;;4998172;28;20036;-70
2022/04/14 09:21:28;;;;;;;23.27;11.88;;;;;;;;;;4997939;28;20784;-72
2022/04/14 09:23:54;;;;;;;21.70;11.90;;;;;;;;;;5004423;28;20046;-73
2022/04/14 09:26:23;;;;;;;19.85;9.48;;;;;;;;;;4998242;28;20426;-72
2022/04/14 09:29:10;;;;;;;17.08;9.35;;;;;;;;;;5004626;28;20069;-70
2022/04/14 09:31:51;;;;;;;17.05;8.70;;;;;;;;;;5002225;28;20060;-72
2022/04/14 09:34:19;;;;;;;13.68;7.25;;;;;;;;;;5005041;28;20121;-72
2022/04/14 09:37:07;;;;;;;16.27;8.05;;;;;;;;;;5005459;28;20037;-72
2022/04/14 09:40:02;;;;;;;16.05;7.55;;;;;;;;;;5004332;28;20042;-72
2022/04/14 09:42:32;;;;;;;11.18;6.65;;;;;;;;;;5005123;28;20046;-72
2022/04/14 09:45:25;;;;;;;13.90;6.65;;;;;;;;;;5006266;28;20589;-74
2022/04/14 09:47:52;;;;;;;11.02;5.60;;;;;;;;;;5005259;28;20601;-72
2022/04/14 09:50:29;;;;;;;12.57;5.57;;;;;;;;;;4996660;28;20120;-72
2022/04/14 09:53:12;;;;;;;14.52;6.05;;;;;;;;;;5000751;28;20022;-73
2022/04/14 09:55:39;;;;;;;10.52;5.65;;;;;;;;;;5007839;28;20038;-73
2022/04/14 09:58:05;;;;;;;16.02;7.93;;;;;;;;;;5004526;28;20069;-71
2022/04/14 10:00:40;;;;;;;8.65;5.47;;;;;;;;;;5004673;28;20044;-71
2022/04/14 10:03:10;;;;;;;12.52;6.95;;;;;;;;;;5006484;28;20056;-71
2022/04/14 10:05:35;;;;;;;12.18;4.88;;;;;;;;;;4985655;28;20083;-68
2022/04/14 10:08:01;;;;;;;11.13;5.70;;;;;;;;;;5002166;28;20014;-75
2022/04/14 10:10:26;;;;;;;12.63;4.85;;;;;;;;;;4997157;28;20622;-74
2022/04/14 10:13:03;;;;;;;6.35;4.03;;;;;;;;;;5001598;28;20045;-73
2022/04/14 10:15:30;;;;;;;12.63;5.13;;;;;;;;;;4996612;28;20164;-73
2022/04/14 10:17:56;;;;;;;7.20;3.67;;;;;;;;;;4999776;28;20045;-73
2022/04/14 10:20:25;;;;;;;9.30;5.18;;;;;;;;;;5003341;28;20029;-75
2022/04/14 10:22:50;;;;;;;8.13;3.42;;;;;;;;;;5002196;28;20022;-74
2022/04/14 10:25:16;;;;;;;4.88;2.53;;;;;;;;;;4989198;28;20038;-74
2022/04/14 10:27:41;;;;;;;10.32;4.07;;;;;;;;;;4997821;28;20034;-73
2022/04/14 10:30:07;;;;;;;10.77;5.78;;;;;;;;;;5001789;28;20042;-74
2022/04/14 10:32:34;;;;;;;11.45;5.68;;;;;;;;;;5002351;28;20049;-74
2022/04/14 10:35:02;;;;;;;11.75;5.90;;;;;;;;;;5001212;28;20030;-73
2022/04/14 10:37:32;;;;;;;11.70;6.50;;;;;;;;;;4996099;28;20033;-73
2022/04/14 10:39:58;;;;;;;17.10;6.72;;;;;;;;;;4997373;28;20049;-73
2022/04/14 10:42:26;;;;;;;13.48;7.03;;;;;;;;;;5002592;28;20034;-73
2022/04/14 10:44:52;;;;;;;9.10;6.05;;;;;;;;;;4997803;28;20042;-73
2022/04/14 10:47:34;;;;;;;10.57;4.80;;;;;;;;;;5001708;28;20053;-73
2022/04/14 10:50:00;;;;;;;10.38;6.05;;;;;;;;;;4999226;28;20033;-73
2022/04/14 10:52:27;;;;;;;12.65;5.70;;;;;;;;;;4998502;28;20129;-73
2022/04/14 10:54:57;;;;;;;13.60;7.88;;;;;;;;;;4998935;28;20034;-73
2022/04/14 10:57:51;;;;;;;13.60;7.03;;;;;;;;;;4999825;28;20040;-73
2022/04/14 11:00:20;;;;;;;13.43;7.70;;;;;;;;;;4989508;28;20042;-73
2022/04/14 11:03:05;;;;;;;11.70;7.07;;;;;;;;;;4999611;28;20132;-73
2022/04/14 11:05:57;;;;;;;12.52;7.38;;;;;;;;;;4997420;28;20041;-73
2022/04/14 11:08:32;;;;;;;13.05;7.65;;;;;;;;;;4999605;28;20042;-74
2022/04/14 11:11:07;;;;;;;12.30;7.43;;;;;;;;;;5006848;28;20519;-73
2022/04/14 11:13:50;;;;;;;13.00;7.53;;;;;;;;;;5000546;28;20132;-74
2022/04/14 11:16:38;;;;;;;14.27;7.82;;;;;;;;;;4998414;28;20068;-72
2022/04/14 11:19:18;;;;;;;14.73;7.47;;;;;;;;;;4994081;28;20043;-74
2022/04/14 11:24:40;;;;;;;15.30;8.75;;;;;;;;;;4996039;28;20510;-73
2022/04/14 11:27:09;;;;;;;15.48;7.85;;;;;;;;;;4995495;28;20100;-72
2022/04/14 11:29:35;;;;;;;13.75;6.60;;;;;;;;;;4998156;28;20042;-72
2022/04/14 11:32:00;;;;;;;9.50;5.82;;;;;;;;;;4999012;28;20558;-74
2022/04/14 11:34:36;;;;;;;12.15;6.32;;;;;;;;;;4992058;28;20115;-74
2022/04/14 11:37:02;;;;;;;7.32;4.90;;;;;;;;;;4993801;28;20133;-74
2022/04/14 11:39:29;;;;;;;10.35;5.60;;;;;;;;;;5002640;28;20115;-72
2022/04/14 11:42:28;;;;;;;8.95;5.47;;;;;;;;;;5003088;28;20037;-73
2022/04/14 11:44:59;;;;;;;11.57;6.70;;;;;;;;;;4985469;28;20534;-72
2022/04/14 11:47:26;;;;;;;14.85;9.68;;;;;;;;;;4999012;28;20064;-73
2022/04/14 11:49:52;;;;;;;10.85;7.18;;;;;;;;;;4999678;28;20101;-73
2022/04/14 11:52:21;;;;;;;9.07;5.53;;;;;;;;;;4997027;28;20128;-71
2022/04/14 11:54:46;;;;;;;12.05;6.50;;;;;;;;;;4999717;28;20046;-72
2022/04/14 11:57:18;;;;;;;14.90;8.18;;;;;;;;;;4995402;28;20034;-72
2022/04/14 11:59:44;;;;;;;16.05;9.60;;;;;;;;;;5000892;28;20046;-75
2022/04/14 12:02:14;;;;;;;14.82;8.82;;;;;;;;;;5001986;28;20072;-75
2022/04/14 12:04:43;;;;;;;14.05;8.73;;;;;;;;;;4999501;28;20569;-75
2022/04/14 12:07:08;;;;;;;16.85;9.07;;;;;;;;;;4999346;28;20077;-75
2022/04/14 12:09:34;;;;;;;13.23;9.07;;;;;;;;;;4997283;28;20081;-75
2022/04/14 12:12:12;;;;;;;13.57;8.75;;;;;;;;;;4997741;28;20524;-73
2022/04/14 12:14:52;;;;;;;15.70;10.18;;;;;;;;;;5000629;28;20049;-73
2022/04/14 12:17:22;;;;;;;13.77;9.52;;;;;;;;;;4999662;28;20259;-74
2022/04/14 12:19:59;;;;;;;13.55;9.57;;;;;;;;;;4998707;28;20493;-73
2022/04/14 12:22:28;;;;;;;14.80;9.73;;;;;;;;;;4992407;28;20709;-73
2022/04/14 12:24:56;;;;;;;17.60;9.40;;;;;;;;;;4995408;28;20515;-75
2022/04/14 12:27:27;;;;;;;13.80;9.18;;;;;;;;;;5000103;28;20056;-75
2022/04/14 12:29:53;;;;;;;15.23;10.05;;;;;;;;;;4995574;28;20583;-72
2022/04/14 12:32:24;;;;;;;14.35;9.10;;;;;;;;;;5001804;28;20135;-73
2022/04/14 12:34:49;;;;;;;14.80;8.90;;;;;;;;;;5003293;28;20026;-72
2022/04/14 12:37:18;;;;;;;15.05;10.05;;;;;;;;;;5002187;28;20057;-74
2022/04/14 12:40:00;;;;;;;11.30;6.93;;;;;;;;;;4993510;28;20129;-73
2022/04/14 12:42:32;;;;;;;16.13;7.95;;;;;;;;;;5003298;28;20034;-72
2022/04/14 12:45:12;;;;;;;10.70;7.03;;;;;;;;;;5008010;28;20041;-71
2022/04/14 12:47:46;;;;;;;11.25;6.85;;;;;;;;;;5000842;28;20042;-71
2022/04/14 12:50:19;;;;;;;11.75;8.23;;;;;;;;;;5004698;28;20506;-72
2022/04/14 12:52:54;;;;;;;13.18;7.97;;;;;;;;;;5004285;28;20050;-72
2022/04/14 12:55:21;;;;;;;12.95;7.80;;;;;;;;;;5002999;28;20447;-73
2022/04/14 12:57:48;;;;;;;11.48;7.03;;;;;;;;;;4991096;28;20034;-73
2022/04/14 13:00:18;;;;;;;13.27;7.03;;;;;;;;;;5007066;28;20045;-72
2022/04/14 13:03:02;;;;;;;9.02;6.70;;;;;;;;;;4994702;28;20046;-72
2022/04/14 13:05:28;;;;;;;10.25;6.45;;;;;;;;;;4993982;28;20025;-73
2022/04/14 13:07:55;;;;;;;11.07;5.97;;;;;;;;;;5007403;28;20041;-73
2022/04/14 13:10:25;;;;;;;10.80;6.22;;;;;;;;;;5009213;28;20052;-73
2022/04/14 13:12:50;;;;;;;12.68;6.03;;;;;;;;;;4999483;28;20042;-74
2022/04/14 13:15:18;;;;;;;11.65;5.70;;;;;;;;;;4992309;28;20545;-74
2022/04/14 13:17:44;;;;;;;13.10;5.93;;;;;;;;;;5006523;28;20037;-74
2022/04/14 13:20:20;;;;;;;9.75;5.13;;;;;;;;;;4997170;28;20034;-74
2022/04/14 13:22:48;;;;;;;9.35;5.45;;;;;;;;;;4985329;28;20077;-74
2022/04/14 13:25:14;;;;;;;7.13;4.65;;;;;;;;;;4982841;28;20595;-74
2022/04/14 13:27:40;;;;;;;10.70;4.88;;;;;;;;;;4983062;28;20413;-73
2022/04/14 13:30:07;;;;;;;9.10;4.50;;;;;;;;;;4976925;28;20664;-73
2022/04/14 13:32:32;;;;;;;9.77;4.18;;;;;;;;;;4968860;28;20062;-71
2022/04/14 13:34:58;;;;;;;7.07;4.25;;;;;;;;;;4978921;28;20080;-72
2022/04/14 13:37:23;;;;;;;8.27;4.90;;;;;;;;;;4977365;28;20034;-72
2022/04/14 13:39:49;;;;;;;9.35;4.30;;;;;;;;;;4985948;28;20026;-73
2022/04/14 13:42:14;;;;;;;9.15;4.40;;;;;;;;;;4977440;28;20080;-72
2022/04/14 13:44:41;;;;;;;8.13;4.50;;;;;;;;;;4979496;28;20053;-72
2022/04/14 13:47:07;;;;;;;5.72;3.97;;;;;;;;;;4981730;28;20030;-72
2022/04/14 13:49:33;;;;;;;9.32;4.57;;;;;;;;;;4981664;28;20100;-73
2022/04/14 13:52:00;;;;;;;8.20;4.80;;;;;;;;;;4977806;28;20039;-72
2022/04/14 13:54:26;;;;;;;8.30;4.50;;;;;;;;;;4980904;28;20038;-72
2022/04/14 13:56:51;;;;;;;6.57;5.05;;;;;;;;;;4980239;28;20035;-73
2022/04/14 13:59:16;;;;;;;9.60;5.88;;;;;;;;;;4978876;28;20030;-73
2022/04/14 14:01:42;;;;;;;9.43;5.55;;;;;;;;;;4986332;28;20026;-71
2022/04/14 14:04:07;;;;;;;7.65;5.20;;;;;;;;;;4986767;28;20053;-72
2022/04/14 14:06:33;;;;;;;8.35;5.40;;;;;;;;;;4979531;28;20049;-72
2022/04/14 14:08:58;;;;;;;10.32;4.85;;;;;;;;;;4978595;28;20050;-70
2022/04/14 14:11:23;;;;;;;7.35;3.90;;;;;;;;;;4964609;28;20062;-69
2022/04/14 14:13:50;;;;;;;7.22;4.68;;;;;;;;;;4957412;28;20166;-70
2022/04/14 14:16:16;;;;;;;8.10;4.60;;;;;;;;;;4970309;28;20045;-72
2022/04/14 14:18:42;;;;;;;6.43;4.40;;;;;;;;;;4984930;28;20038;-70
2022/04/14 14:21:07;;;;;;;8.02;4.65;;;;;;;;;;4976969;28;20043;-71
2022/04/14 14:23:33;;;;;;;9.35;5.40;;;;;;;;;;4971839;28;20034;-73
2022/04/14 14:25:58;;;;;;;11.32;5.85;;;;;;;;;;4975185;28;20452;-73
2022/04/14 14:28:24;;;;;;;11.82;6.05;;;;;;;;;;4981489;28;20043;-72